Powderville, Montana
Current Conditions -  °F | °C
As of 5:51 PM on Monday 26 Jan 2015 (Local Time) from KBHK Reporting Station
Clear Clear  
Wind Chill:   Ceiling: Unl
Heat Index:   Visibility: 10mi
Dew Point:   Wind: 0mph
Humidity: 70%   Direction: NA
Pressure: 29.94"   Gusts: NA
Location:  45.76°N, 105.11°W
Report Text: KBHK 270051Z AUTO 00000KT 10SM CLR 06/01 A2994 RMK AO2 SLP154 T00560006
Loading
Personal Weather Stations






























Interactive Weather Map New forecast layout! Learn more

10-Day Weather Forecast

Advertisements
Track Severe Weather on mobile